sensor_id;sensor_type;location;lat;lon;timestamp;temperature;humidity
23377;DHT22;14353;46.070;13.222;2022-11-12T00:00:37;19.80;55.40
23377;DHT22;14353;46.070;13.222;2022-11-12T00:03:03;19.80;55.40
23377;DHT22;14353;46.070;13.222;2022-11-12T00:05:29;19.80;55.40
23377;DHT22;14353;46.070;13.222;2022-11-12T00:07:55;19.70;55.40
23377;DHT22;14353;46.070;13.222;2022-11-12T00:10:26;19.80;55.50
23377;DHT22;14353;46.070;13.222;2022-11-12T00:12:52;19.70;55.40
23377;DHT22;14353;46.070;13.222;2022-11-12T00:15:18;19.80;55.40
23377;DHT22;14353;46.070;13.222;2022-11-12T00:17:44;19.80;55.40
23377;DHT22;14353;46.070;13.222;2022-11-12T00:20:10;19.80;55.40
23377;DHT22;14353;46.070;13.222;2022-11-12T00:22:36;19.70;55.40
23377;DHT22;14353;46.070;13.222;2022-11-12T00:25:03;19.70;55.40
23377;DHT22;14353;46.070;13.222;2022-11-12T00:27:31;19.70;55.40
23377;DHT22;14353;46.070;13.222;2022-11-12T00:29:56;19.70;55.40
23377;DHT22;14353;46.070;13.222;2022-11-12T00:32:24;19.70;55.40
23377;DHT22;14353;46.070;13.222;2022-11-12T00:34:53;19.70;55.40
23377;DHT22;14353;46.070;13.222;2022-11-12T00:37:19;19.70;55.40
23377;DHT22;14353;46.070;13.222;2022-11-12T00:39:45;19.70;55.40
23377;DHT22;14353;46.070;13.222;2022-11-12T00:42:11;19.70;55.40
23377;DHT22;14353;46.070;13.222;2022-11-12T00:44:37;19.70;55.40
23377;DHT22;14353;46.070;13.222;2022-11-12T00:47:02;19.70;55.40
23377;DHT22;14353;46.070;13.222;2022-11-12T00:49:28;19.70;55.30
23377;DHT22;14353;46.070;13.222;2022-11-12T00:51:54;19.70;55.30
23377;DHT22;14353;46.070;13.222;2022-11-12T00:54:19;19.70;55.30
23377;DHT22;14353;46.070;13.222;2022-11-12T00:56:46;19.70;55.30
23377;DHT22;14353;46.070;13.222;2022-11-12T00:59:12;19.70;55.30
23377;DHT22;14353;46.070;13.222;2022-11-12T01:01:38;19.70;55.30
23377;DHT22;14353;46.070;13.222;2022-11-12T01:04:05;19.70;55.30
23377;DHT22;14353;46.070;13.222;2022-11-12T01:06:34;19.70;56.00
23377;DHT22;14353;46.070;13.222;2022-11-12T01:09:00;19.70;55.30
23377;DHT22;14353;46.070;13.222;2022-11-12T01:11:27;19.70;55.30
23377;DHT22;14353;46.070;13.222;2022-11-12T01:13:56;19.70;55.30
23377;DHT22;14353;46.070;13.222;2022-11-12T01:16:25;19.70;55.30
23377;DHT22;14353;46.070;13.222;2022-11-12T01:18:54;19.70;55.30
23377;DHT22;14353;46.070;13.222;2022-11-12T01:21:20;19.70;55.30
23377;DHT22;14353;46.070;13.222;2022-11-12T01:23:46;19.70;55.30
23377;DHT22;14353;46.070;13.222;2022-11-12T01:26:14;19.70;55.30
23377;DHT22;14353;46.070;13.222;2022-11-12T01:28:41;19.60;55.20
23377;DHT22;14353;46.070;13.222;2022-11-12T01:31:20;19.60;55.30
23377;DHT22;14353;46.070;13.222;2022-11-12T01:33:49;19.60;55.30
23377;DHT22;14353;46.070;13.222;2022-11-12T01:36:18;19.60;55.30
23377;DHT22;14353;46.070;13.222;2022-11-12T01:38:44;19.60;55.20
23377;DHT22;14353;46.070;13.222;2022-11-12T01:41:19;19.60;55.20
23377;DHT22;14353;46.070;13.222;2022-11-12T01:43:45;19.60;55.20
23377;DHT22;14353;46.070;13.222;2022-11-12T01:46:26;19.60;55.20
23377;DHT22;14353;46.070;13.222;2022-11-12T01:48:57;19.60;55.30
23377;DHT22;14353;46.070;13.222;2022-11-12T01:51:31;19.60;55.20
23377;DHT22;14353;46.070;13.222;2022-11-12T01:54:04;19.60;55.20
23377;DHT22;14353;46.070;13.222;2022-11-12T01:56:32;19.60;55.20
23377;DHT22;14353;46.070;13.222;2022-11-12T01:59:28;19.60;55.20
23377;DHT22;14353;46.070;13.222;2022-11-12T02:01:52;19.60;55.80
23377;DHT22;14353;46.070;13.222;2022-11-12T02:04:17;19.60;55.20
23377;DHT22;14353;46.070;13.222;2022-11-12T02:06:44;19.60;55.20
23377;DHT22;14353;46.070;13.222;2022-11-12T02:09:12;19.60;55.20
23377;DHT22;14353;46.070;13.222;2022-11-12T02:11:38;19.60;55.20
23377;DHT22;14353;46.070;13.222;2022-11-12T02:14:06;19.60;55.20
23377;DHT22;14353;46.070;13.222;2022-11-12T02:16:38;19.60;55.20
23377;DHT22;14353;46.070;13.222;2022-11-12T02:19:06;19.60;55.20
23377;DHT22;14353;46.070;13.222;2022-11-12T02:21:36;19.60;55.10
23377;DHT22;14353;46.070;13.222;2022-11-12T02:26:41;19.60;55.10
23377;DHT22;14353;46.070;13.222;2022-11-12T02:29:07;19.50;55.10
23377;DHT22;14353;46.070;13.222;2022-11-12T02:31:33;19.60;55.10
23377;DHT22;14353;46.070;13.222;2022-11-12T02:34:00;19.50;55.00
23377;DHT22;14353;46.070;13.222;2022-11-12T02:36:26;19.60;55.10
23377;DHT22;14353;46.070;13.222;2022-11-12T02:38:52;19.50;55.00
23377;DHT22;14353;46.070;13.222;2022-11-12T02:41:20;19.50;55.10
23377;DHT22;14353;46.070;13.222;2022-11-12T02:43:46;19.50;55.10
23377;DHT22;14353;46.070;13.222;2022-11-12T02:46:12;19.50;55.00
23377;DHT22;14353;46.070;13.222;2022-11-12T02:48:38;19.50;55.10
23377;DHT22;14353;46.070;13.222;2022-11-12T02:51:04;19.50;55.00
23377;DHT22;14353;46.070;13.222;2022-11-12T02:53:30;19.50;55.00
23377;DHT22;14353;46.070;13.222;2022-11-12T02:55:57;19.50;55.00
23377;DHT22;14353;46.070;13.222;2022-11-12T02:58:23;19.50;55.10
23377;DHT22;14353;46.070;13.222;2022-11-12T03:00:52;19.50;55.00
23377;DHT22;14353;46.070;13.222;2022-11-12T03:03:17;19.50;55.00
23377;DHT22;14353;46.070;13.222;2022-11-12T03:05:44;19.50;55.10
23377;DHT22;14353;46.070;13.222;2022-11-12T03:08:13;19.50;55.00
23377;DHT22;14353;46.070;13.222;2022-11-12T03:10:39;19.50;55.00
23377;DHT22;14353;46.070;13.222;2022-11-12T03:13:05;19.50;55.10
23377;DHT22;14353;46.070;13.222;2022-11-12T03:15:31;19.50;55.00
23377;DHT22;14353;46.070;13.222;2022-11-12T03:17:58;19.50;55.00
23377;DHT22;14353;46.070;13.222;2022-11-12T03:20:24;19.50;55.00
23377;DHT22;14353;46.070;13.222;2022-11-12T03:22:57;19.50;55.00
23377;DHT22;14353;46.070;13.222;2022-11-12T03:25:24;19.50;55.10
23377;DHT22;14353;46.070;13.222;2022-11-12T03:28:00;19.50;55.00
23377;DHT22;14353;46.070;13.222;2022-11-12T03:30:28;19.50;55.00
23377;DHT22;14353;46.070;13.222;2022-11-12T03:32:54;19.50;55.00
23377;DHT22;14353;46.070;13.222;2022-11-12T03:35:20;19.40;55.00
23377;DHT22;14353;46.070;13.222;2022-11-12T03:37:45;19.50;55.00
23377;DHT22;14353;46.070;13.222;2022-11-12T03:40:15;19.40;55.00
23377;DHT22;14353;46.070;13.222;2022-11-12T03:42:46;19.40;54.90
23377;DHT22;14353;46.070;13.222;2022-11-12T03:45:13;19.50;55.00
23377;DHT22;14353;46.070;13.222;2022-11-12T03:47:45;19.40;55.00
23377;DHT22;14353;46.070;13.222;2022-11-12T03:50:12;19.40;54.90
23377;DHT22;14353;46.070;13.222;2022-11-12T03:52:38;19.40;54.90
23377;DHT22;14353;46.070;13.222;2022-11-12T03:55:08;19.40;54.90
23377;DHT22;14353;46.070;13.222;2022-11-12T03:57:34;19.40;54.90
23377;DHT22;14353;46.070;13.222;2022-11-12T03:59:59;19.40;54.90
23377;DHT22;14353;46.070;13.222;2022-11-12T04:02:25;19.40;54.90
23377;DHT22;14353;46.070;13.222;2022-11-12T04:04:54;19.40;54.90
23377;DHT22;14353;46.070;13.222;2022-11-12T04:07:38;19.40;54.90
23377;DHT22;14353;46.070;13.222;2022-11-12T04:10:22;19.40;54.90
23377;DHT22;14353;46.070;13.222;2022-11-12T04:12:48;19.40;54.90
23377;DHT22;14353;46.070;13.222;2022-11-12T04:15:32;19.40;54.80
23377;DHT22;14353;46.070;13.222;2022-11-12T04:17:58;19.40;54.90
23377;DHT22;14353;46.070;13.222;2022-11-12T04:20:42;19.40;54.90
23377;DHT22;14353;46.070;13.222;2022-11-12T04:23:46;19.40;54.80
23377;DHT22;14353;46.070;13.222;2022-11-12T04:26:14;19.40;54.80
23377;DHT22;14353;46.070;13.222;2022-11-12T04:28:49;19.40;54.80
23377;DHT22;14353;46.070;13.222;2022-11-12T04:31:33;19.40;54.80
23377;DHT22;14353;46.070;13.222;2022-11-12T04:33:59;19.40;54.80
23377;DHT22;14353;46.070;13.222;2022-11-12T04:36:44;19.40;54.80
23377;DHT22;14353;46.070;13.222;2022-11-12T04:39:10;19.40;54.80
23377;DHT22;14353;46.070;13.222;2022-11-12T04:41:36;19.40;54.80
23377;DHT22;14353;46.070;13.222;2022-11-12T04:44:20;19.40;54.80
23377;DHT22;14353;46.070;13.222;2022-11-12T04:47:04;19.40;54.80
23377;DHT22;14353;46.070;13.222;2022-11-12T04:49:30;19.40;54.80
23377;DHT22;14353;46.070;13.222;2022-11-12T04:51:55;19.30;54.80
23377;DHT22;14353;46.070;13.222;2022-11-12T04:54:30;19.30;54.80
23377;DHT22;14353;46.070;13.222;2022-11-12T04:56:58;19.30;54.80
23377;DHT22;14353;46.070;13.222;2022-11-12T04:59:24;19.30;54.80
23377;DHT22;14353;46.070;13.222;2022-11-12T05:01:50;19.30;54.80
23377;DHT22;14353;46.070;13.222;2022-11-12T05:04:15;19.30;54.70
23377;DHT22;14353;46.070;13.222;2022-11-12T05:06:42;19.30;54.80
23377;DHT22;14353;46.070;13.222;2022-11-12T05:09:18;19.30;54.70
23377;DHT22;14353;46.070;13.222;2022-11-12T05:11:44;19.30;54.70
23377;DHT22;14353;46.070;13.222;2022-11-12T05:14:10;19.30;54.70
23377;DHT22;14353;46.070;13.222;2022-11-12T05:16:38;19.40;54.70
23377;DHT22;14353;46.070;13.222;2022-11-12T05:19:04;19.30;54.60
23377;DHT22;14353;46.070;13.222;2022-11-12T05:21:30;19.30;54.60
23377;DHT22;14353;46.070;13.222;2022-11-12T05:24:15;19.30;54.60
23377;DHT22;14353;46.070;13.222;2022-11-12T05:26:41;19.30;54.60
23377;DHT22;14353;46.070;13.222;2022-11-12T05:29:08;19.30;54.60
23377;DHT22;14353;46.070;13.222;2022-11-12T05:31:34;19.30;54.60
23377;DHT22;14353;46.070;13.222;2022-11-12T05:34:00;19.30;54.60
23377;DHT22;14353;46.070;13.222;2022-11-12T05:36:29;19.30;54.60
23377;DHT22;14353;46.070;13.222;2022-11-12T05:38:55;19.30;54.60
23377;DHT22;14353;46.070;13.222;2022-11-12T05:41:20;19.30;54.60
23377;DHT22;14353;46.070;13.222;2022-11-12T05:43:46;19.30;54.60
23377;DHT22;14353;46.070;13.222;2022-11-12T05:46:12;19.30;54.60
23377;DHT22;14353;46.070;13.222;2022-11-12T05:48:38;19.30;54.70
23377;DHT22;14353;46.070;13.222;2022-11-12T05:51:04;19.30;54.70
23377;DHT22;14353;46.070;13.222;2022-11-12T05:53:31;19.30;54.70
23377;DHT22;14353;46.070;13.222;2022-11-12T05:56:03;19.30;54.60
23377;DHT22;14353;46.070;13.222;2022-11-12T05:58:30;19.30;54.50
23377;DHT22;14353;46.070;13.222;2022-11-12T06:00:57;19.40;54.50
23377;DHT22;14353;46.070;13.222;2022-11-12T06:03:23;19.40;54.40
23377;DHT22;14353;46.070;13.222;2022-11-12T06:05:49;19.40;54.40
23377;DHT22;14353;46.070;13.222;2022-11-12T06:08:15;19.40;54.30
23377;DHT22;14353;46.070;13.222;2022-11-12T06:10:41;19.40;54.20
23377;DHT22;14353;46.070;13.222;2022-11-12T06:13:06;19.50;54.20
23377;DHT22;14353;46.070;13.222;2022-11-12T06:15:32;19.50;54.20
23377;DHT22;14353;46.070;13.222;2022-11-12T06:17:58;19.50;54.10
23377;DHT22;14353;46.070;13.222;2022-11-12T06:20:24;19.50;54.10
23377;DHT22;14353;46.070;13.222;2022-11-12T06:22:50;19.50;54.00
23377;DHT22;14353;46.070;13.222;2022-11-12T06:25:18;19.50;54.00
23377;DHT22;14353;46.070;13.222;2022-11-12T06:27:44;19.50;53.90
23377;DHT22;14353;46.070;13.222;2022-11-12T06:30:10;19.50;53.70
23377;DHT22;14353;46.070;13.222;2022-11-12T06:32:35;19.60;53.50
23377;DHT22;14353;46.070;13.222;2022-11-12T06:35:01;19.50;53.20
23377;DHT22;14353;46.070;13.222;2022-11-12T06:37:27;19.60;53.20
23377;DHT22;14353;46.070;13.222;2022-11-12T06:39:52;19.60;53.00
23377;DHT22;14353;46.070;13.222;2022-11-12T06:42:18;19.60;52.70
23377;DHT22;14353;46.070;13.222;2022-11-12T06:44:44;19.70;52.70
23377;DHT22;14353;46.070;13.222;2022-11-12T06:47:10;19.70;52.50
23377;DHT22;14353;46.070;13.222;2022-11-12T06:49:36;19.70;52.40
23377;DHT22;14353;46.070;13.222;2022-11-12T06:52:02;19.70;52.30
23377;DHT22;14353;46.070;13.222;2022-11-12T06:54:31;19.70;52.20
23377;DHT22;14353;46.070;13.222;2022-11-12T06:56:59;19.70;52.70
23377;DHT22;14353;46.070;13.222;2022-11-12T06:59:26;19.70;52.10
23377;DHT22;14353;46.070;13.222;2022-11-12T07:02:01;19.70;52.00
23377;DHT22;14353;46.070;13.222;2022-11-12T07:04:31;19.80;51.90
23377;DHT22;14353;46.070;13.222;2022-11-12T07:07:00;19.80;51.80
23377;DHT22;14353;46.070;13.222;2022-11-12T07:09:29;19.80;51.80
23377;DHT22;14353;46.070;13.222;2022-11-12T07:11:57;19.80;51.80
23377;DHT22;14353;46.070;13.222;2022-11-12T07:14:23;19.80;51.70
23377;DHT22;14353;46.070;13.222;2022-11-12T07:16:49;19.90;51.80
23377;DHT22;14353;46.070;13.222;2022-11-12T07:19:17;19.90;51.80
23377;DHT22;14353;46.070;13.222;2022-11-12T07:21:44;19.90;51.80
23377;DHT22;14353;46.070;13.222;2022-11-12T07:24:10;19.90;51.70
23377;DHT22;14353;46.070;13.222;2022-11-12T07:26:39;19.90;51.70
23377;DHT22;14353;46.070;13.222;2022-11-12T07:29:05;19.90;51.70
23377;DHT22;14353;46.070;13.222;2022-11-12T07:31:31;19.90;51.60
23377;DHT22;14353;46.070;13.222;2022-11-12T07:33:57;20.00;51.60
23377;DHT22;14353;46.070;13.222;2022-11-12T07:36:24;20.00;51.50
23377;DHT22;14353;46.070;13.222;2022-11-12T07:38:51;20.00;51.40
23377;DHT22;14353;46.070;13.222;2022-11-12T07:41:22;20.10;51.30
23377;DHT22;14353;46.070;13.222;2022-11-12T07:43:50;20.10;51.30
23377;DHT22;14353;46.070;13.222;2022-11-12T07:46:19;20.10;51.30
23377;DHT22;14353;46.070;13.222;2022-11-12T07:48:47;20.10;51.30
23377;DHT22;14353;46.070;13.222;2022-11-12T07:51:22;20.10;51.20
23377;DHT22;14353;46.070;13.222;2022-11-12T07:53:52;20.20;51.20
23377;DHT22;14353;46.070;13.222;2022-11-12T07:56:20;20.10;51.10
23377;DHT22;14353;46.070;13.222;2022-11-12T07:58:50;20.20;51.10
23377;DHT22;14353;46.070;13.222;2022-11-12T08:01:31;20.20;51.10
23377;DHT22;14353;46.070;13.222;2022-11-12T08:04:03;20.20;51.10
23377;DHT22;14353;46.070;13.222;2022-11-12T08:06:31;20.30;51.10
23377;DHT22;14353;46.070;13.222;2022-11-12T08:08:59;20.30;51.10
23377;DHT22;14353;46.070;13.222;2022-11-12T08:11:28;20.30;51.10
23377;DHT22;14353;46.070;13.222;2022-11-12T08:13:54;20.30;51.10
23377;DHT22;14353;46.070;13.222;2022-11-12T08:16:30;20.30;51.30
23377;DHT22;14353;46.070;13.222;2022-11-12T08:18:59;20.30;51.30
23377;DHT22;14353;46.070;13.222;2022-11-12T08:21:26;20.40;51.50
23377;DHT22;14353;46.070;13.222;2022-11-12T08:23:54;20.40;51.50
23377;DHT22;14353;46.070;13.222;2022-11-12T08:26:22;20.40;51.60
23377;DHT22;14353;46.070;13.222;2022-11-12T08:28:48;20.40;51.70
23377;DHT22;14353;46.070;13.222;2022-11-12T08:31:17;20.40;51.60
23377;DHT22;14353;46.070;13.222;2022-11-12T08:33:43;20.40;51.70
23377;DHT22;14353;46.070;13.222;2022-11-12T08:36:13;20.40;51.80
23377;DHT22;14353;46.070;13.222;2022-11-12T08:38:40;20.50;51.80
23377;DHT22;14353;46.070;13.222;2022-11-12T08:41:09;20.50;51.80
23377;DHT22;14353;46.070;13.222;2022-11-12T08:43:36;20.50;51.90
23377;DHT22;14353;46.070;13.222;2022-11-12T08:46:03;20.50;51.90
23377;DHT22;14353;46.070;13.222;2022-11-12T08:48:33;20.50;51.90
23377;DHT22;14353;46.070;13.222;2022-11-12T08:51:03;20.50;51.80
23377;DHT22;14353;46.070;13.222;2022-11-12T08:53:31;20.50;51.80
23377;DHT22;14353;46.070;13.222;2022-11-12T08:55:57;20.50;51.70
23377;DHT22;14353;46.070;13.222;2022-11-12T08:58:27;20.60;51.80
23377;DHT22;14353;46.070;13.222;2022-11-12T09:00:54;20.60;51.80
23377;DHT22;14353;46.070;13.222;2022-11-12T09:03:32;20.60;51.70
23377;DHT22;14353;46.070;13.222;2022-11-12T09:06:03;20.60;51.70
23377;DHT22;14353;46.070;13.222;2022-11-12T09:08:33;20.60;51.70
23377;DHT22;14353;46.070;13.222;2022-11-12T09:11:08;20.60;51.80
23377;DHT22;14353;46.070;13.222;2022-11-12T09:13:37;20.60;51.80
23377;DHT22;14353;46.070;13.222;2022-11-12T09:16:26;20.60;51.90
23377;DHT22;14353;46.070;13.222;2022-11-12T09:19:45;20.60;51.90
23377;DHT22;14353;46.070;13.222;2022-11-12T09:22:13;20.70;52.10
23377;DHT22;14353;46.070;13.222;2022-11-12T09:24:44;20.70;52.20
23377;DHT22;14353;46.070;13.222;2022-11-12T09:27:13;20.70;52.50
23377;DHT22;14353;46.070;13.222;2022-11-12T09:29:45;20.70;52.20
23377;DHT22;14353;46.070;13.222;2022-11-12T09:32:15;20.70;52.20
23377;DHT22;14353;46.070;13.222;2022-11-12T09:34:47;20.70;52.20
23377;DHT22;14353;46.070;13.222;2022-11-12T09:37:29;20.70;52.20
23377;DHT22;14353;46.070;13.222;2022-11-12T09:40:01;20.70;52.40
23377;DHT22;14353;46.070;13.222;2022-11-12T09:42:36;20.80;52.40
23377;DHT22;14353;46.070;13.222;2022-11-12T09:45:25;20.80;52.50
23377;DHT22;14353;46.070;13.222;2022-11-12T09:57:51;20.90;53.00
23377;DHT22;14353;46.070;13.222;2022-11-12T10:00:57;20.90;53.20
23377;DHT22;14353;46.070;13.222;2022-11-12T10:25:43;21.10;53.30
23377;DHT22;14353;46.070;13.222;2022-11-12T10:28:27;21.10;53.30
23377;DHT22;14353;46.070;13.222;2022-11-12T10:31:01;21.10;53.30
23377;DHT22;14353;46.070;13.222;2022-11-12T10:33:33;21.10;53.50
23377;DHT22;14353;46.070;13.222;2022-11-12T10:36:15;21.00;53.30
23377;DHT22;14353;46.070;13.222;2022-11-12T10:38:44;21.10;53.60
23377;DHT22;14353;46.070;13.222;2022-11-12T10:43:56;21.10;53.30
23377;DHT22;14353;46.070;13.222;2022-11-12T10:46:36;21.10;53.30
23377;DHT22;14353;46.070;13.222;2022-11-12T10:51:54;21.10;53.10
23377;DHT22;14353;46.070;13.222;2022-11-12T10:54:28;21.10;53.00
23377;DHT22;14353;46.070;13.222;2022-11-12T10:59:43;21.10;52.70
23377;DHT22;14353;46.070;13.222;2022-11-12T11:02:21;21.10;52.70
23377;DHT22;14353;46.070;13.222;2022-11-12T11:04:56;21.10;52.70
23377;DHT22;14353;46.070;13.222;2022-11-12T11:07:23;21.10;52.80
23377;DHT22;14353;46.070;13.222;2022-11-12T11:09:59;21.10;52.70
23377;DHT22;14353;46.070;13.222;2022-11-12T11:12:33;21.10;52.80
23377;DHT22;14353;46.070;13.222;2022-11-12T11:15:19;21.10;53.00
23377;DHT22;14353;46.070;13.222;2022-11-12T11:17:48;21.10;53.10
23377;DHT22;14353;46.070;13.222;2022-11-12T11:20:33;21.10;53.30
23377;DHT22;14353;46.070;13.222;2022-11-12T11:23:29;21.10;53.50
23377;DHT22;14353;46.070;13.222;2022-11-12T11:29:13;21.10;53.90
23377;DHT22;14353;46.070;13.222;2022-11-12T11:31:59;21.10;53.30
23377;DHT22;14353;46.070;13.222;2022-11-12T11:34:42;21.10;53.40
23377;DHT22;14353;46.070;13.222;2022-11-12T11:37:31;21.10;53.40
23377;DHT22;14353;46.070;13.222;2022-11-12T11:51:03;21.20;53.00
23377;DHT22;14353;46.070;13.222;2022-11-12T11:54:07;21.20;53.10
23377;DHT22;14353;46.070;13.222;2022-11-12T11:56:42;21.20;53.10
23377;DHT22;14353;46.070;13.222;2022-11-12T12:04:48;21.20;53.10
23377;DHT22;14353;46.070;13.222;2022-11-12T12:07:53;21.20;53.10
23377;DHT22;14353;46.070;13.222;2022-11-12T12:10:37;21.20;53.20
23377;DHT22;14353;46.070;13.222;2022-11-12T12:21:35;21.10;53.50
23377;DHT22;14353;46.070;13.222;2022-11-12T12:24:21;21.10;53.50
23377;DHT22;14353;46.070;13.222;2022-11-12T12:29:24;21.10;53.50
23377;DHT22;14353;46.070;13.222;2022-11-12T12:32:04;21.10;53.80
23377;DHT22;14353;46.070;13.222;2022-11-12T12:35:12;21.00;54.10
23377;DHT22;14353;46.070;13.222;2022-11-12T12:37:53;21.10;54.40
23377;DHT22;14353;46.070;13.222;2022-11-12T12:40:32;21.10;54.40
23377;DHT22;14353;46.070;13.222;2022-11-12T12:43:25;21.10;54.30
23377;DHT22;14353;46.070;13.222;2022-11-12T12:45:53;21.10;54.80
23377;DHT22;14353;46.070;13.222;2022-11-12T12:48:33;21.10;55.30
23377;DHT22;14353;46.070;13.222;2022-11-12T12:51:00;21.20;55.80
23377;DHT22;14353;46.070;13.222;2022-11-12T12:55:57;21.10;56.50
23377;DHT22;14353;46.070;13.222;2022-11-12T12:58:40;21.10;57.10
23377;DHT22;14353;46.070;13.222;2022-11-12T13:01:30;21.10;57.00
23377;DHT22;14353;46.070;13.222;2022-11-12T13:04:04;21.10;57.00
23377;DHT22;14353;46.070;13.222;2022-11-12T13:06:34;21.00;56.80
23377;DHT22;14353;46.070;13.222;2022-11-12T13:09:05;21.00;56.80
23377;DHT22;14353;46.070;13.222;2022-11-12T13:15:11;20.90;56.70
23377;DHT22;14353;46.070;13.222;2022-11-12T13:17:43;20.90;56.70
23377;DHT22;14353;46.070;13.222;2022-11-12T13:43:10;20.80;56.60
23377;DHT22;14353;46.070;13.222;2022-11-12T13:48:47;20.70;56.40
23377;DHT22;14353;46.070;13.222;2022-11-12T13:51:37;20.70;56.40
23377;DHT22;14353;46.070;13.222;2022-11-12T13:54:28;20.70;56.40
23377;DHT22;14353;46.070;13.222;2022-11-12T13:59:39;20.70;56.30
23377;DHT22;14353;46.070;13.222;2022-11-12T14:02:31;20.70;56.30
23377;DHT22;14353;46.070;13.222;2022-11-12T14:04:57;20.70;56.30
23377;DHT22;14353;46.070;13.222;2022-11-12T14:07:57;20.70;56.30
23377;DHT22;14353;46.070;13.222;2022-11-12T14:13:59;20.70;56.20
23377;DHT22;14353;46.070;13.222;2022-11-12T14:16:40;20.70;56.20
23377;DHT22;14353;46.070;13.222;2022-11-12T14:21:56;20.70;56.10
23377;DHT22;14353;46.070;13.222;2022-11-12T14:24:26;20.70;56.10
23377;DHT22;14353;46.070;13.222;2022-11-12T14:26:54;20.70;55.90
23377;DHT22;14353;46.070;13.222;2022-11-12T14:29:20;20.70;55.90
23377;DHT22;14353;46.070;13.222;2022-11-12T14:31:59;20.70;55.90
23377;DHT22;14353;46.070;13.222;2022-11-12T14:34:32;20.70;55.90
23377;DHT22;14353;46.070;13.222;2022-11-12T14:36:59;20.70;55.90
23377;DHT22;14353;46.070;13.222;2022-11-12T14:39:30;20.70;55.90
23377;DHT22;14353;46.070;13.222;2022-11-12T14:42:12;20.70;55.90
23377;DHT22;14353;46.070;13.222;2022-11-12T14:44:40;20.70;55.90
23377;DHT22;14353;46.070;13.222;2022-11-12T14:47:07;20.70;55.80
23377;DHT22;14353;46.070;13.222;2022-11-12T14:49:41;20.70;55.80
23377;DHT22;14353;46.070;13.222;2022-11-12T14:52:18;20.70;55.80
23377;DHT22;14353;46.070;13.222;2022-11-12T14:54:48;20.70;55.70
23377;DHT22;14353;46.070;13.222;2022-11-12T14:57:25;20.70;55.70
23377;DHT22;14353;46.070;13.222;2022-11-12T14:59:52;20.60;55.70
23377;DHT22;14353;46.070;13.222;2022-11-12T15:02:19;20.60;55.70
23377;DHT22;14353;46.070;13.222;2022-11-12T15:05:14;20.60;55.70
23377;DHT22;14353;46.070;13.222;2022-11-12T15:08:01;20.60;55.70
23377;DHT22;14353;46.070;13.222;2022-11-12T15:10:38;20.60;55.70
23377;DHT22;14353;46.070;13.222;2022-11-12T15:13:09;20.50;55.70
23377;DHT22;14353;46.070;13.222;2022-11-12T15:15:56;20.50;55.80
23377;DHT22;14353;46.070;13.222;2022-11-12T15:18:29;20.50;55.90
23377;DHT22;14353;46.070;13.222;2022-11-12T15:21:25;20.40;56.00
23377;DHT22;14353;46.070;13.222;2022-11-12T15:23:55;20.40;56.00
23377;DHT22;14353;46.070;13.222;2022-11-12T15:26:42;20.40;56.10
23377;DHT22;14353;46.070;13.222;2022-11-12T15:32:03;20.40;56.20
23377;DHT22;14353;46.070;13.222;2022-11-12T15:34:53;20.30;56.20
23377;DHT22;14353;46.070;13.222;2022-11-12T15:37:24;20.30;56.20
23377;DHT22;14353;46.070;13.222;2022-11-12T15:39:58;20.30;56.20
23377;DHT22;14353;46.070;13.222;2022-11-12T15:42:36;20.30;56.30
23377;DHT22;14353;46.070;13.222;2022-11-12T15:45:18;20.30;56.30
23377;DHT22;14353;46.070;13.222;2022-11-12T15:47:44;20.30;56.30
23377;DHT22;14353;46.070;13.222;2022-11-12T15:50:21;20.20;56.30
23377;DHT22;14353;46.070;13.222;2022-11-12T15:52:48;20.20;56.40
23377;DHT22;14353;46.070;13.222;2022-11-12T15:55:15;20.20;56.40
23377;DHT22;14353;46.070;13.222;2022-11-12T15:57:50;20.20;56.40
23377;DHT22;14353;46.070;13.222;2022-11-12T16:00:18;20.20;56.40
23377;DHT22;14353;46.070;13.222;2022-11-12T16:02:48;20.20;57.00
23377;DHT22;14353;46.070;13.222;2022-11-12T16:05:18;20.10;56.30
23377;DHT22;14353;46.070;13.222;2022-11-12T16:07:47;20.10;56.40
23377;DHT22;14353;46.070;13.222;2022-11-12T16:10:15;20.10;56.40
23377;DHT22;14353;46.070;13.222;2022-11-12T16:12:44;20.10;56.50
23377;DHT22;14353;46.070;13.222;2022-11-12T16:15:16;20.10;56.50
23377;DHT22;14353;46.070;13.222;2022-11-12T16:17:44;20.10;56.60
23377;DHT22;14353;46.070;13.222;2022-11-12T16:20:14;20.10;56.50
23377;DHT22;14353;46.070;13.222;2022-11-12T16:22:40;20.10;56.50
23377;DHT22;14353;46.070;13.222;2022-11-12T16:25:06;20.10;56.50
23377;DHT22;14353;46.070;13.222;2022-11-12T16:27:32;20.00;56.50
23377;DHT22;14353;46.070;13.222;2022-11-12T16:29:58;20.00;56.60
23377;DHT22;14353;46.070;13.222;2022-11-12T16:32:32;20.00;56.60
23377;DHT22;14353;46.070;13.222;2022-11-12T16:35:01;20.00;56.60
23377;DHT22;14353;46.070;13.222;2022-11-12T16:37:27;20.00;56.60
23377;DHT22;14353;46.070;13.222;2022-11-12T16:39:55;20.00;56.60
23377;DHT22;14353;46.070;13.222;2022-11-12T16:42:21;20.00;56.60
23377;DHT22;14353;46.070;13.222;2022-11-12T16:44:50;20.00;56.60
23377;DHT22;14353;46.070;13.222;2022-11-12T16:47:22;20.00;56.60
23377;DHT22;14353;46.070;13.222;2022-11-12T16:49:50;19.90;56.60
23377;DHT22;14353;46.070;13.222;2022-11-12T16:52:18;19.90;56.60
23377;DHT22;14353;46.070;13.222;2022-11-12T16:54:47;19.90;56.60
23377;DHT22;14353;46.070;13.222;2022-11-12T16:57:12;20.00;56.60
23377;DHT22;14353;46.070;13.222;2022-11-12T16:59:38;19.90;56.60
23377;DHT22;14353;46.070;13.222;2022-11-12T17:02:11;19.90;56.60
23377;DHT22;14353;46.070;13.222;2022-11-12T17:04:41;19.90;56.60
23377;DHT22;14353;46.070;13.222;2022-11-12T17:07:13;19.90;56.60
23377;DHT22;14353;46.070;13.222;2022-11-12T17:09:41;19.90;56.70
23377;DHT22;14353;46.070;13.222;2022-11-12T17:12:08;19.90;56.70
23377;DHT22;14353;46.070;13.222;2022-11-12T17:14:36;19.90;56.70
23377;DHT22;14353;46.070;13.222;2022-11-12T17:17:04;19.90;56.70
23377;DHT22;14353;46.070;13.222;2022-11-12T17:19:30;19.90;56.70
23377;DHT22;14353;46.070;13.222;2022-11-12T17:21:56;19.90;56.70
23377;DHT22;14353;46.070;13.222;2022-11-12T17:24:25;19.90;56.70
23377;DHT22;14353;46.070;13.222;2022-11-12T17:26:51;19.90;56.80
23377;DHT22;14353;46.070;13.222;2022-11-12T17:29:17;19.80;57.40
23377;DHT22;14353;46.070;13.222;2022-11-12T17:31:49;19.80;56.70
23377;DHT22;14353;46.070;13.222;2022-11-12T17:34:14;19.80;56.80
23377;DHT22;14353;46.070;13.222;2022-11-12T17:36:43;19.80;56.70